Time;durP1;ratioP1;P1;durP2;ratioP2;P2;SDS_P1;SDS_P2;PMS_P1;PMS_P2;Temp;Humidity;BMP_temperature;BMP_pressure;BME280_temperature;BME280_humidity;BME280_pressure;Samples;Min_cycle;Max_cycle;Signal;HPM_P1;HPM_P2
2023/04/26 00:00:29;;;;;;;25.00;9.60;;;;;;;10.70;89.33;99782.41;107681;1251;99055;-62
2023/04/26 00:03:12;;;;;;;21.90;9.60;;;;;;;10.71;89.62;99778.66;107800;1249;113488;-62
2023/04/26 00:05:41;;;;;;;20.50;8.60;;;;;;;10.69;90.13;99776.52;107855;1251;108993;-61
2023/04/26 00:08:09;;;;;;;21.00;8.80;;;;;;;10.68;90.75;99780.75;107748;1251;108557;-61
2023/04/26 00:10:39;;;;;;;23.50;9.40;;;;;;;10.67;90.94;99780.98;107629;1250;99158;-61
2023/04/26 00:13:07;;;;;;;20.50;8.50;;;;;;;10.69;90.95;99785.41;107693;1251;99169;-61
2023/04/26 00:15:36;;;;;;;19.50;9.10;;;;;;;10.70;90.73;99782.31;107899;1249;113172;-59
2023/04/26 00:18:05;;;;;;;30.30;8.70;;;;;;;10.70;90.29;99787.52;107883;1251;109237;-63
2023/04/26 00:20:33;;;;;;;22.40;8.70;;;;;;;10.70;89.85;99792.05;107598;1250;107736;-61
2023/04/26 00:23:02;;;;;;;22.90;8.80;;;;;;;10.74;89.92;99797.81;107583;1250;99160;-60
2023/04/26 00:25:30;;;;;;;22.10;8.90;;;;;;;10.77;89.63;99797.31;107780;1251;99233;-60
2023/04/26 00:27:59;;;;;;;19.00;8.50;;;;;;;10.82;89.79;99797.70;107782;1251;113113;-63
2023/04/26 00:30:28;;;;;;;18.10;9.20;;;;;;;10.84;89.47;99797.85;107869;1252;110196;-62
2023/04/26 00:32:56;;;;;;;24.60;9.50;;;;;;;10.85;89.49;99797.75;107879;1248;107819;-60
2023/04/26 00:35:24;;;;;;;19.80;9.60;;;;;;;10.86;89.65;99794.29;107682;1251;99203;-62
2023/04/26 00:37:53;;;;;;;20.70;9.20;;;;;;;10.85;89.50;99795.20;107686;1256;99369;-61
2023/04/26 00:40:21;;;;;;;17.50;9.80;;;;;;;10.86;89.42;99795.52;107856;1250;113755;-61
2023/04/26 00:42:59;;;;;;;29.80;9.50;;;;;;;10.86;89.29;99799.84;107728;1251;108356;-61
2023/04/26 00:45:27;;;;;;;21.70;11.30;;;;;;;10.88;90.46;99799.27;107610;1249;107039;-61
2023/04/26 00:48:01;;;;;;;23.00;9.50;;;;;;;10.88;90.25;99805.09;107567;1250;99182;-62
2023/04/26 00:50:31;;;;;;;21.70;10.20;;;;;;;10.93;90.05;99798.67;107602;1253;99240;-61
2023/04/26 00:53:01;;;;;;;19.60;9.30;;;;;;;10.96;90.03;99797.52;107581;1251;113535;-60
2023/04/26 00:55:30;;;;;;;35.10;10.00;;;;;;;11.00;89.91;99799.08;107860;1251;109103;-60
2023/04/26 00:57:59;;;;;;;27.30;10.90;;;;;;;11.05;90.05;99800.48;107828;1253;108542;-61
2023/04/26 01:00:28;;;;;;;23.60;9.10;;;;;;;11.09;89.83;99802.11;107832;1248;99243;-62
2023/04/26 01:02:57;;;;;;;17.20;10.50;;;;;;;11.12;89.67;99806.19;107905;1248;99934;-62
2023/04/26 01:05:26;;;;;;;24.00;10.30;;;;;;;11.18;89.55;99801.86;107615;1248;112750;-61
2023/04/26 01:07:55;;;;;;;20.80;11.00;;;;;;;11.22;89.33;99800.63;107886;1252;109578;-61
2023/04/26 01:10:24;;;;;;;24.30;10.20;;;;;;;11.27;89.41;99798.52;107920;1248;108272;-62
2023/04/26 01:12:53;;;;;;;21.60;10.20;;;;;;;11.32;89.21;99794.96;107587;1249;99234;-62
2023/04/26 01:15:22;;;;;;;28.70;10.60;;;;;;;11.38;89.11;99794.10;107726;1250;99182;-60
2023/04/26 01:17:51;;;;;;;18.50;10.20;;;;;;;11.42;88.97;99793.16;107777;1250;113703;-60
2023/04/26 01:20:19;;;;;;;24.60;10.40;;;;;;;11.44;88.73;99786.33;107721;1250;109784;-61
2023/04/26 01:22:48;;;;;;;21.50;10.30;;;;;;;11.46;88.46;99785.92;107749;1251;108750;-61
2023/04/26 01:25:18;;;;;;;28.00;10.80;;;;;;;11.48;88.26;99781.52;107836;1250;99169;-60
2023/04/26 01:27:46;;;;;;;19.30;10.20;;;;;;;11.51;88.01;99776.75;107713;1254;99703;-62
2023/04/26 01:30:14;;;;;;;23.00;10.40;;;;;;;11.53;87.75;99772.38;107831;1248;114365;-61
2023/04/26 01:32:43;;;;;;;26.40;10.90;;;;;;;11.56;87.78;99773.86;107844;1248;109108;-60
2023/04/26 01:35:11;;;;;;;21.90;10.50;;;;;;;11.59;87.89;99776.02;107650;1249;108033;-61
2023/04/26 01:37:40;;;;;;;20.80;11.60;;;;;;;11.61;87.61;99777.67;107572;1249;99199;-61
2023/04/26 01:40:10;;;;;;;25.00;12.80;;;;;;;11.63;87.58;99775.17;107783;1248;99096;-61
2023/04/26 01:42:38;;;;;;;25.90;11.70;;;;;;;11.63;87.30;99773.73;107591;1248;113161;-62
2023/04/26 01:45:07;;;;;;;19.20;11.30;;;;;;;11.64;87.24;99770.02;107569;1249;109188;-61
2023/04/26 01:47:56;;;;;;;27.40;12.40;;;;;;;11.62;87.12;99771.27;107302;1249;108519;-61
2023/04/26 01:50:25;;;;;;;23.10;11.80;;;;;;;11.61;87.14;99767.06;107766;1249;99061;-62
2023/04/26 01:52:54;;;;;;;24.80;12.50;;;;;;;11.62;87.24;99763.39;107804;1250;99597;-59
2023/04/26 01:55:22;;;;;;;30.20;13.70;;;;;;;11.62;87.21;99761.73;107642;1250;113434;-61
2023/04/26 01:57:51;;;;;;;28.20;13.40;;;;;;;11.63;87.06;99760.41;107634;1250;109138;-61
2023/04/26 02:00:19;;;;;;;31.80;14.10;;;;;;;11.62;87.08;99758.71;107619;1248;108167;-60
2023/04/26 02:02:49;;;;;;;30.00;13.00;;;;;;;11.60;86.81;99761.23;107836;1252;99219;-61
2023/04/26 02:05:18;;;;;;;29.40;13.20;;;;;;;11.59;86.72;99759.58;107634;1250;99717;-61
2023/04/26 02:07:47;;;;;;;33.10;13.80;;;;;;;11.58;86.90;99756.55;107612;1251;113580;-61
2023/04/26 02:10:15;;;;;;;31.80;14.40;;;;;;;11.56;86.97;99756.42;107724;1250;109233;-62
2023/04/26 02:12:45;;;;;;;31.90;14.50;;;;;;;11.57;87.31;99756.15;107722;1250;108357;-60
2023/04/26 02:15:14;;;;;;;34.10;14.30;;;;;;;11.58;87.37;99756.89;107583;1251;99237;-60
2023/04/26 02:17:42;;;;;;;31.60;14.20;;;;;;;11.57;87.22;99755.09;107672;1250;99053;-61
2023/04/26 02:20:11;;;;;;;32.80;14.90;;;;;;;11.58;87.37;99753.56;107781;1249;113592;-60
2023/04/26 02:22:40;;;;;;;34.40;15.40;;;;;;;11.60;87.48;99756.89;107741;1251;109079;-62
2023/04/26 02:25:08;;;;;;;28.80;14.50;;;;;;;11.62;87.36;99751.70;107865;1247;107844;-60
2023/04/26 02:27:37;;;;;;;29.10;14.50;;;;;;;11.65;87.61;99759.32;107883;1249;99150;-62
2023/04/26 02:30:06;;;;;;;38.90;14.30;;;;;;;11.68;87.62;99753.89;107840;1250;99733;-61
2023/04/26 02:32:35;;;;;;;28.70;14.70;;;;;;;11.71;87.48;99749.58;107733;1250;112684;-62
2023/04/26 02:35:04;;;;;;;26.10;14.50;;;;;;;11.76;87.62;99749.61;107719;1250;108732;-60
2023/04/26 02:37:33;;;;;;;24.80;14.50;;;;;;;11.79;87.54;99746.98;107610;1249;108644;-62
2023/04/26 02:40:04;;;;;;;26.80;14.80;;;;;;;11.81;87.36;99752.31;107746;1249;99281;-60
2023/04/26 02:42:32;;;;;;;40.80;16.30;;;;;;;11.83;87.22;99747.80;107811;1249;99048;-60
2023/04/26 02:45:00;;;;;;;32.20;15.60;;;;;;;11.84;87.24;99748.23;107669;1250;113830;-60
2023/04/26 02:47:30;;;;;;;37.70;16.90;;;;;;;11.80;86.65;99752.82;107772;1250;110679;-60
2023/04/26 02:49:58;;;;;;;31.20;14.40;;;;;;;11.78;86.62;99755.04;107840;1249;108083;-60
2023/04/26 02:52:27;;;;;;;27.80;15.60;;;;;;;11.80;86.84;99757.75;107750;1252;99256;-60
2023/04/26 02:54:55;;;;;;;33.40;15.80;;;;;;;11.81;87.10;99760.59;107669;1250;99214;-61
2023/04/26 02:57:23;;;;;;;28.50;15.80;;;;;;;11.80;86.95;99766.62;107699;1249;112793;-61
2023/04/26 02:59:52;;;;;;;31.50;15.70;;;;;;;11.83;87.14;99765.58;107718;1250;109203;-62
2023/04/26 03:02:20;;;;;;;26.90;15.50;;;;;;;11.86;87.16;99768.77;107625;1251;108212;-61
2023/04/26 03:04:49;;;;;;;28.80;14.40;;;;;;;11.90;87.13;99770.18;107703;1250;99225;-61
2023/04/26 03:07:18;;;;;;;25.70;15.20;;;;;;;11.92;86.99;99769.48;107584;1249;99292;-60
2023/04/26 03:09:47;;;;;;;35.90;17.30;;;;;;;11.91;86.75;99775.08;107708;1250;113049;-61
2023/04/26 03:12:17;;;;;;;32.60;17.70;;;;;;;11.90;86.55;99773.93;107836;1250;109707;-62
2023/04/26 03:14:46;;;;;;;34.20;17.20;;;;;;;11.88;86.59;99774.86;107670;1251;108030;-61
2023/04/26 03:17:14;;;;;;;34.40;17.60;;;;;;;11.89;86.74;99778.64;107796;1248;99162;-61
2023/04/26 03:19:43;;;;;;;32.20;17.70;;;;;;;11.89;86.63;99775.61;107860;1250;99265;-61
2023/04/26 03:22:14;;;;;;;33.10;16.80;;;;;;;11.89;86.54;99778.92;107758;1250;113163;-60
2023/04/26 03:24:44;;;;;;;36.70;16.70;;;;;;;11.89;86.60;99786.58;107767;1248;109257;-60
2023/04/26 03:27:13;;;;;;;38.30;16.90;;;;;;;11.91;86.55;99791.07;107882;1251;108331;-60
2023/04/26 03:29:42;;;;;;;32.40;17.00;;;;;;;11.89;86.02;99795.62;107824;1250;99168;-61
2023/04/26 03:32:11;;;;;;;32.30;18.70;;;;;;;11.87;85.98;99798.72;107710;1250;99746;-61
2023/04/26 03:34:40;;;;;;;33.00;17.30;;;;;;;11.88;86.26;99800.34;107648;1249;113522;-61
2023/04/26 03:37:09;;;;;;;51.20;27.90;;;;;;;11.90;86.47;99801.92;107908;1248;109921;-60
2023/04/26 03:39:38;;;;;;;30.60;17.40;;;;;;;11.93;86.74;99809.02;107488;1254;108888;-61
2023/04/26 03:42:07;;;;;;;37.00;17.40;;;;;;;11.95;86.75;99816.55;107560;1250;99151;-61
2023/04/26 03:44:37;;;;;;;27.00;14.70;;;;;;;11.88;87.10;99831.84;107627;1249;99204;-62
2023/04/26 03:47:05;;;;;;;18.10;10.30;;;;;;;11.76;86.88;99826.48;107814;1249;113540;-61
2023/04/26 03:49:34;;;;;;;5.40;4.50;;;;;;;11.65;86.38;99828.19;107679;1250;109449;-62
2023/04/26 03:52:03;;;;;;;8.90;4.10;;;;;;;11.50;85.16;99840.20;107713;1250;107329;-61
2023/04/26 03:54:31;;;;;;;2.70;2.20;;;;;;;11.37;84.82;99850.98;107558;1249;99160;-62
2023/04/26 03:57:00;;;;;;;2.30;1.50;;;;;;;11.24;83.76;99862.48;107778;1253;99179;-62
2023/04/26 03:59:29;;;;;;;4.20;1.60;;;;;;;11.11;83.31;99867.02;107768;1250;112182;-63
2023/04/26 04:01:58;;;;;;;4.50;1.50;;;;;;;10.96;83.13;99871.75;107792;1250;108458;-63
2023/04/26 04:04:26;;;;;;;1.90;1.40;;;;;;;10.79;82.43;99876.94;107691;1249;108466;-61
2023/04/26 04:06:55;;;;;;;1.10;1.00;;;;;;;10.66;82.81;99880.91;107756;1250;99269;-61
2023/04/26 04:09:24;;;;;;;3.60;1.20;;;;;;;10.57;82.76;99884.72;107729;1251;99064;-61
2023/04/26 04:11:54;;;;;;;0.80;0.80;;;;;;;10.45;82.53;99891.29;107725;1251;112741;-61
2023/04/26 04:14:23;;;;;;;1.90;1.10;;;;;;;10.33;82.39;99901.66;107586;1250;109052;-60
2023/04/26 04:16:51;;;;;;;0.70;0.70;;;;;;;10.25;82.64;99900.13;107749;1251;109358;-64
2023/04/26 04:19:22;;;;;;;1.90;0.80;;;;;;;10.23;82.61;99903.09;107716;1250;99176;-65
2023/04/26 04:21:56;;;;;;;0.50;0.50;;;;;;;10.17;82.56;99902.70;107586;1250;99169;-61
2023/04/26 04:24:25;;;;;;;1.10;0.70;;;;;;;10.10;82.40;99908.48;107818;1250;113545;-60
2023/04/26 04:26:54;;;;;;;1.30;0.90;;;;;;;9.96;82.04;99913.21;107617;1248;110714;-61
2023/04/26 04:29:23;;;;;;;1.40;0.70;;;;;;;9.84;82.35;99922.86;107915;1248;107719;-62
2023/04/26 04:31:52;;;;;;;2.00;0.90;;;;;;;9.68;82.33;99932.96;107613;1250;99436;-61
2023/04/26 04:34:22;;;;;;;2.20;0.60;;;;;;;9.52;82.64;99941.91;107596;1250;99263;-59
2023/04/26 04:36:51;;;;;;;3.50;0.70;;;;;;;9.31;83.10;99950.05;107718;1250;113742;-60
2023/04/26 04:39:20;;;;;;;1.10;0.90;;;;;;;9.14;83.88;99955.06;107689;1250;110121;-61
2023/04/26 04:41:48;;;;;;;1.10;0.80;;;;;;;9.01;84.74;99962.52;107592;1249;108322;-60
2023/04/26 04:44:19;;;;;;;1.50;1.10;;;;;;;8.90;85.37;99963.75;107561;1250;99180;-60
2023/04/26 04:46:48;;;;;;;4.90;1.00;;;;;;;8.83;86.02;99967.04;107721;1250;99769;-65
2023/04/26 04:49:17;;;;;;;1.20;1.00;;;;;;;8.75;86.46;99972.30;107584;1250;113228;-62
2023/04/26 04:51:45;;;;;;;0.80;0.80;;;;;;;8.69;86.54;99974.11;107647;1250;108692;-62
2023/04/26 04:54:16;;;;;;;1.10;0.70;;;;;;;8.60;87.22;99977.75;107604;1250;107630;-61
2023/04/26 04:56:47;;;;;;;1.20;0.90;;;;;;;8.52;87.25;99976.38;107737;1249;99160;-61
2023/04/26 04:59:16;;;;;;;2.00;1.10;;;;;;;8.48;87.09;99975.29;107724;1251;99263;-61
2023/04/26 05:01:44;;;;;;;2.60;1.00;;;;;;;8.48;87.22;99978.75;107840;1251;114170;-61
2023/04/26 05:04:14;;;;;;;5.10;1.70;;;;;;;8.45;87.59;99977.66;107577;1248;108537;-63
2023/04/26 05:06:44;;;;;;;2.60;1.10;;;;;;;8.42;87.55;99982.75;107861;1248;108373;-60
2023/04/26 05:09:12;;;;;;;1.60;0.80;;;;;;;8.37;87.80;99976.06;107859;1248;99171;-60
2023/04/26 05:11:41;;;;;;;1.60;0.70;;;;;;;8.34;87.86;99978.74;107917;1248;99683;-62
2023/04/26 05:14:12;;;;;;;0.70;0.70;;;;;;;8.29;88.55;99980.71;107768;1250;113668;-61
2023/04/26 05:16:41;;;;;;;0.60;0.60;;;;;;;8.26;88.52;99985.63;107892;1248;109152;-62
2023/04/26 05:19:12;;;;;;;0.90;0.80;;;;;;;8.30;88.58;99980.14;107576;1248;108626;-61
2023/04/26 05:21:41;;;;;;;1.10;1.00;;;;;;;8.40;89.17;99975.67;107556;1250;99221;-60
2023/04/26 05:24:10;;;;;;;2.40;1.40;;;;;;;8.42;88.94;99986.50;107483;1253;99327;-61
2023/04/26 05:26:39;;;;;;;1.20;0.90;;;;;;;8.46;88.38;99988.55;107668;1250;113313;-60
2023/04/26 05:29:20;;;;;;;1.00;0.90;;;;;;;8.51;87.77;99987.92;107646;1248;109159;-60
2023/04/26 05:32:01;;;;;;;1.10;0.90;;;;;;;8.55;87.48;99988.98;107749;1250;108565;-61
2023/04/26 05:34:42;;;;;;;1.80;1.10;;;;;;;8.55;86.75;99995.19;107779;1249;99156;-62
2023/04/26 05:37:16;;;;;;;0.80;0.80;;;;;;;8.54;86.81;100003.89;107832;1249;99691;-61
2023/04/26 05:39:44;;;;;;;1.60;1.00;;;;;;;8.61;86.82;100006.28;107683;1250;113070;-61
2023/04/26 05:42:13;;;;;;;2.80;1.20;;;;;;;8.69;86.48;100009.85;107615;1251;110417;-62
2023/04/26 05:44:45;;;;;;;1.00;0.90;;;;;;;8.70;85.77;100005.45;107733;1250;108675;-61
2023/04/26 05:47:13;;;;;;;1.10;1.00;;;;;;;8.71;85.66;100011.43;107823;1249;99170;-60
2023/04/26 05:49:42;;;;;;;6.80;1.40;;;;;;;8.75;85.76;100016.60;107654;1250;99083;-61
2023/04/26 05:52:11;;;;;;;4.70;1.20;;;;;;;8.73;85.18;100017.86;107640;1250;112488;-61
2023/04/26 05:54:40;;;;;;;1.30;0.70;;;;;;;8.71;84.91;100010.02;107638;1249;109100;-58
2023/04/26 05:57:08;;;;;;;1.00;0.70;;;;;;;8.75;84.56;100017.64;107598;1249;108681;-60
2023/04/26 05:59:39;;;;;;;2.20;0.80;;;;;;;8.83;84.65;100018.55;107636;1251;99300;-61
2023/04/26 06:02:07;;;;;;;2.90;0.70;;;;;;;8.90;84.08;100020.59;107661;1249;98366;-60
2023/04/26 06:04:36;;;;;;;1.50;0.70;;;;;;;8.87;83.65;100024.60;107626;1249;113224;-61
2023/04/26 06:07:08;;;;;;;3.70;1.00;;;;;;;8.86;83.30;100027.76;107620;1251;109729;-60
2023/04/26 06:09:37;;;;;;;0.60;0.60;;;;;;;8.83;82.97;100031.41;107652;1250;108622;-61
2023/04/26 06:12:05;;;;;;;0.90;0.70;;;;;;;8.82;82.83;100030.80;107679;1251;99197;-61
2023/04/26 06:14:35;;;;;;;3.10;1.10;;;;;;;8.83;82.57;100033.71;107619;1250;99698;-61
2023/04/26 06:17:08;;;;;;;1.60;0.80;;;;;;;8.87;82.72;100037.64;107742;1251;113493;-61
2023/04/26 06:19:37;;;;;;;4.00;0.70;;;;;;;8.95;82.44;100041.08;107689;1250;108988;-60
2023/04/26 06:22:05;;;;;;;0.60;0.60;;;;;;;8.98;81.63;100035.39;107646;1250;108099;-62
2023/04/26 06:24:34;;;;;;;1.20;0.40;;;;;;;9.02;81.06;100041.42;107635;1250;99151;-62
2023/04/26 06:27:02;;;;;;;2.10;0.60;;;;;;;9.04;80.82;100043.61;107527;1250;99268;-62
2023/04/26 06:29:32;;;;;;;3.10;1.50;;;;;;;9.03;80.76;100053.31;107593;1250;113599;-62
2023/04/26 06:32:01;;;;;;;7.30;1.30;;;;;;;9.01;80.63;100059.48;107764;1250;109155;-62
2023/04/26 06:34:30;;;;;;;3.80;1.10;;;;;;;8.99;80.64;100063.89;107722;1251;106149;-61
2023/04/26 06:36:59;;;;;;;4.80;1.20;;;;;;;8.95;80.48;100065.86;107587;1253;99206;-61
2023/04/26 06:39:28;;;;;;;3.60;1.10;;;;;;;8.90;80.70;100075.11;107713;1250;99390;-62
2023/04/26 06:41:56;;;;;;;1.40;1.10;;;;;;;8.84;79.86;100080.14;107584;1250;113380;-62
2023/04/26 06:44:28;;;;;;;5.00;0.80;;;;;;;8.81;79.68;100082.94;107639;1250;108776;-60
2023/04/26 06:47:02;;;;;;;2.40;1.80;;;;;;;8.81;79.89;100083.27;107610;1250;108002;-61
2023/04/26 06:49:32;;;;;;;7.00;1.50;;;;;;;8.83;79.41;100085.65;107584;1253;99163;-61
2023/04/26 06:52:00;;;;;;;4.30;1.60;;;;;;;8.85;79.27;100091.33;107735;1249;99023;-60
2023/04/26 06:54:30;;;;;;;4.90;1.50;;;;;;;8.88;79.11;100091.77;107596;1253;113211;-62
2023/04/26 06:56:58;;;;;;;5.50;1.00;;;;;;;8.87;79.27;100092.70;107759;1250;109153;-59
2023/04/26 06:59:28;;;;;;;2.30;1.20;;;;;;;8.88;79.10;100093.30;107667;1250;108224;-60
2023/04/26 07:01:57;;;;;;;2.70;0.90;;;;;;;8.89;78.83;100098.12;107749;1250;99247;-59
2023/04/26 07:04:25;;;;;;;4.70;1.00;;;;;;;8.90;78.95;100100.48;107840;1251;99054;-63
2023/04/26 07:06:56;;;;;;;2.30;1.60;;;;;;;8.89;78.65;100102.38;107770;1250;112420;-61
2023/04/26 07:09:24;;;;;;;4.70;1.50;;;;;;;8.90;79.24;100102.09;107741;1253;109820;-60
2023/04/26 07:11:53;;;;;;;5.30;1.40;;;;;;;8.96;79.59;100105.54;107711;1250;109461;-61
2023/04/26 07:14:22;;;;;;;13.80;1.40;;;;;;;9.03;79.71;100111.44;107729;1249;99028;-61
2023/04/26 07:16:50;;;;;;;1.50;0.90;;;;;;;9.02;79.61;100119.23;107747;1251;99768;-62
2023/04/26 07:19:19;;;;;;;1.50;1.00;;;;;;;8.97;79.76;100123.86;107585;1250;113881;-60
2023/04/26 07:21:47;;;;;;;2.50;1.20;;;;;;;8.93;80.08;100127.20;107650;1248;109311;-60
2023/04/26 07:24:16;;;;;;;4.40;1.20;;;;;;;8.93;80.40;100136.20;107929;1248;108104;-61
2023/04/26 07:26:45;;;;;;;2.20;1.20;;;;;;;8.91;80.35;100136.55;107869;1248;99155;-59
2023/04/26 07:29:13;;;;;;;1.20;1.10;;;;;;;8.84;79.82;100138.98;107920;1248;99265;-62
2023/04/26 07:31:42;;;;;;;1.20;0.80;;;;;;;8.83;79.82;100138.57;107769;1250;112443;-62
2023/04/26 07:34:10;;;;;;;8.30;1.30;;;;;;;8.89;79.74;100140.66;107581;1250;107839;-61
2023/04/26 07:36:39;;;;;;;4.20;1.00;;;;;;;8.91;79.55;100138.49;107493;1248;108896;-61
2023/04/26 07:39:09;;;;;;;2.90;0.80;;;;;;;8.93;79.68;100140.27;107624;1250;99135;-61
2023/04/26 07:41:38;;;;;;;3.00;0.90;;;;;;;8.95;80.10;100149.22;107691;1253;99044;-61
2023/04/26 07:44:10;;;;;;;3.40;1.10;;;;;;;8.96;80.44;100149.00;107749;1251;113360;-61
2023/04/26 07:46:38;;;;;;;3.40;1.20;;;;;;;8.96;80.89;100149.67;107741;1249;109523;-61
2023/04/26 07:49:07;;;;;;;2.70;1.60;;;;;;;8.89;81.35;100155.17;107653;1249;108125;-61
2023/04/26 07:51:40;;;;;;;3.40;1.10;;;;;;;8.89;81.96;100162.46;107744;1248;99162;-63
2023/04/26 07:54:08;;;;;;;1.50;1.10;;;;;;;8.90;81.89;100164.05;107912;1248;99165;-63
2023/04/26 07:56:37;;;;;;;2.10;1.40;;;;;;;8.89;81.46;100164.77;107686;1255;113019;-62
2023/04/26 07:59:06;;;;;;;5.10;1.30;;;;;;;8.88;81.71;100167.05;107045;1251;890053;-63
2023/04/26 08:01:34;;;;;;;5.90;1.10;;;;;;;8.86;81.91;100172.94;107758;1248;108276;-61
2023/04/26 08:04:04;;;;;;;1.90;1.20;;;;;;;8.91;82.11;100180.55;107892;1248;99280;-63
2023/04/26 08:06:33;;;;;;;2.20;1.60;;;;;;;8.94;82.12;100176.73;107870;1250;99199;-63
2023/04/26 08:09:02;;;;;;;2.30;1.60;;;;;;;9.00;82.20;100179.21;107545;1249;113452;-63
2023/04/26 08:11:30;;;;;;;6.00;1.40;;;;;;;9.04;82.44;100188.67;107558;1250;109261;-62
2023/04/26 08:14:02;;;;;;;1.60;1.20;;;;;;;8.94;82.28;100185.25;107657;1251;108273;-64
2023/04/26 08:16:31;;;;;;;2.30;1.00;;;;;;;8.90;82.37;100188.20;107696;1250;99162;-61
2023/04/26 08:19:01;;;;;;;1.70;1.10;;;;;;;8.90;82.72;100193.16;107706;1249;99172;-62
2023/04/26 08:21:30;;;;;;;2.80;1.00;;;;;;;8.93;82.81;100195.52;107651;1248;113373;-63
2023/04/26 08:23:59;;;;;;;1.90;0.90;;;;;;;8.93;82.88;100202.88;107932;1248;109529;-61
2023/04/26 08:26:27;;;;;;;3.80;1.50;;;;;;;8.93;83.00;100202.02;107568;1250;108316;-62
2023/04/26 08:28:56;;;;;;;2.30;1.40;;;;;;;8.89;83.15;100208.04;107549;1251;99039;-61
2023/04/26 08:31:25;;;;;;;1.20;1.10;;;;;;;8.88;83.22;100204.95;107849;1250;99054;-63
2023/04/26 08:33:54;;;;;;;4.50;1.20;;;;;;;8.80;83.40;100206.39;107679;1250;113797;-61
2023/04/26 08:36:22;;;;;;;2.20;1.30;;;;;;;8.74;83.52;100208.91;107592;1253;109998;-64
2023/04/26 08:38:51;;;;;;;2.20;1.30;;;;;;;8.73;83.72;100209.02;107853;1248;109528;-62
2023/04/26 08:41:23;;;;;;;1.80;1.40;;;;;;;8.79;83.76;100207.04;107868;1248;99234;-62
2023/04/26 08:43:55;;;;;;;1.60;1.10;;;;;;;8.92;83.81;100205.52;107673;1248;99135;-63
2023/04/26 08:46:26;;;;;;;3.50;1.60;;;;;;;8.96;83.34;100210.48;107685;1249;114209;-63
2023/04/26 08:49:12;;;;;;;4.70;1.80;;;;;;;8.96;82.97;100217.88;107649;1250;111380;-60
2023/04/26 08:51:43;;;;;;;2.00;1.60;;;;;;;8.96;83.11;100217.01;107537;1251;108011;-61
2023/04/26 08:54:12;;;;;;;1.20;1.10;;;;;;;8.93;82.69;100227.05;107685;1249;99246;-62
2023/04/26 08:56:43;;;;;;;2.00;1.20;;;;;;;8.88;82.27;100227.32;107778;1250;99053;-63
2023/04/26 08:59:12;;;;;;;1.60;1.50;;;;;;;8.94;82.59;100230.71;107574;1250;113309;-64
2023/04/26 09:01:43;;;;;;;3.20;1.80;;;;;;;8.98;82.50;100228.38;107567;1249;110165;-63
2023/04/26 09:04:12;;;;;;;8.10;1.90;;;;;;;9.02;82.43;100231.27;107798;1249;107753;-63
2023/04/26 09:06:41;;;;;;;10.30;1.60;;;;;;;9.08;82.38;100234.48;107769;1249;99159;-63
2023/04/26 09:09:12;;;;;;;4.00;1.30;;;;;;;9.13;82.53;100238.28;107703;1251;99237;-62
2023/04/26 09:11:58;;;;;;;2.80;1.80;;;;;;;9.16;82.71;100240.88;107752;1250;112799;-64
2023/04/26 09:14:26;;;;;;;2.60;2.20;;;;;;;9.18;82.65;100250.04;107765;1250;108368;-62
2023/04/26 09:16:55;;;;;;;6.70;1.40;;;;;;;9.13;82.10;100250.66;107825;1251;108348;-61
2023/04/26 09:19:35;;;;;;;1.90;1.30;;;;;;;9.08;82.20;100253.95;107591;1250;99179;-62
2023/04/26 09:22:05;;;;;;;2.20;1.70;;;;;;;9.06;82.47;100262.67;107620;1248;99077;-61
2023/04/26 09:24:51;;;;;;;1.50;1.40;;;;;;;9.02;81.77;100261.10;107595;1248;113702;-62
2023/04/26 09:27:20;;;;;;;2.60;1.50;;;;;;;9.02;81.07;100260.98;107886;1248;109246;-62
2023/04/26 09:30:04;;;;;;;5.00;2.20;;;;;;;8.97;80.63;100261.92;107848;1251;107626;-62
2023/04/26 09:33:03;;;;;;;2.30;1.40;;;;;;;8.97;80.13;100268.73;107669;1253;99234;-61
2023/04/26 09:35:37;;;;;;;2.10;1.30;;;;;;;8.95;79.69;100267.10;107807;1250;99167;-61
2023/04/26 09:38:11;;;;;;;2.40;1.50;;;;;;;8.96;79.50;100266.84;107626;1250;113562;-61
2023/04/26 09:40:46;;;;;;;5.60;3.20;;;;;;;8.98;79.60;100267.89;107572;1250;109425;-61
2023/04/26 09:43:19;;;;;;;12.70;3.20;;;;;;;9.12;80.03;100264.71;107700;1251;108289;-63
2023/04/26 09:45:57;;;;;;;5.40;2.60;;;;;;;9.21;79.78;100274.98;107786;1253;99285;-61
2023/04/26 09:48:30;;;;;;;3.20;1.80;;;;;;;9.19;79.27;100284.08;107767;1249;99714;-63
2023/04/26 09:51:10;;;;;;;2.00;1.10;;;;;;;9.11;78.65;100289.33;107788;1252;113484;-62
2023/04/26 09:53:41;;;;;;;3.80;1.60;;;;;;;9.05;78.91;100292.65;107733;1250;109665;-61
2023/04/26 09:56:16;;;;;;;7.00;1.50;;;;;;;9.05;78.92;100297.86;107759;1251;108611;-62
2023/04/26 09:58:56;;;;;;;1.80;1.00;;;;;;;9.04;78.85;100300.33;107721;1249;99169;-63
2023/04/26 10:01:28;;;;;;;2.20;1.50;;;;;;;9.06;78.54;100303.53;107796;1251;99800;-61
2023/04/26 10:04:00;;;;;;;1.90;1.00;;;;;;;9.07;78.12;100300.70;107792;1250;112796;-61
2023/04/26 10:06:29;;;;;;;5.80;1.40;;;;;;;9.10;77.89;100307.63;107756;1250;109034;-60
2023/04/26 10:08:58;;;;;;;3.90;2.40;;;;;;;9.09;77.39;100306.63;107679;1252;107999;-61
2023/04/26 10:11:27;;;;;;;3.70;2.00;;;;;;;9.01;76.90;100308.21;107668;1249;99308;-60
2023/04/26 10:13:56;;;;;;;8.10;3.90;;;;;;;8.98;77.25;100309.20;107674;1250;99156;-61
2023/04/26 10:16:25;;;;;;;5.40;2.40;;;;;;;8.95;77.24;100307.16;107700;1250;112562;-60
2023/04/26 10:18:53;;;;;;;4.70;1.30;;;;;;;9.02;77.71;100308.00;107548;1250;110256;-61
2023/04/26 10:21:30;;;;;;;4.20;1.20;;;;;;;9.09;77.56;100311.85;107627;1254;107611;-62
2023/04/26 10:23:59;;;;;;;6.70;1.30;;;;;;;9.14;76.99;100310.17;107822;1248;99174;-59
2023/04/26 10:26:49;;;;;;;5.20;1.10;;;;;;;9.25;77.36;100304.98;107963;1248;99728;-62
2023/04/26 10:29:19;;;;;;;4.30;2.10;;;;;;;9.30;76.18;100310.53;107858;1250;113832;-63
2023/04/26 10:32:00;;;;;;;8.40;1.90;;;;;;;9.22;76.53;100310.10;107666;1250;109805;-61
2023/04/26 10:34:31;;;;;;;1.30;1.20;;;;;;;9.18;76.67;100312.23;107670;1249;108348;-61
2023/04/26 10:37:16;;;;;;;3.90;1.80;;;;;;;9.19;76.91;100305.34;107678;1249;99195;-63
2023/04/26 10:39:45;;;;;;;3.20;1.20;;;;;;;9.25;76.52;100310.59;107535;1250;99180;-62
2023/04/26 10:42:27;;;;;;;3.80;1.10;;;;;;;9.28;76.58;100302.82;107624;1248;111475;-61
2023/04/26 10:44:57;;;;;;;3.30;1.20;;;;;;;9.45;76.69;100305.92;107900;1252;110140;-60
2023/04/26 10:47:30;;;;;;;4.10;1.40;;;;;;;9.54;76.23;100310.84;107868;1252;107024;-60
2023/04/26 10:50:10;;;;;;;3.60;1.10;;;;;;;9.52;75.23;100314.06;107904;1248;99243;-62
2023/04/26 10:53:02;;;;;;;7.60;1.50;;;;;;;9.46;75.50;100325.16;107879;1252;99039;-60
2023/04/26 10:55:50;;;;;;;3.50;1.40;;;;;;;9.46;75.63;100323.92;107906;1253;113525;-63
2023/04/26 10:58:33;;;;;;;11.20;0.90;;;;;;;9.49;75.95;100326.64;107633;1248;109086;-61
2023/04/26 11:01:19;;;;;;;1.70;1.10;;;;;;;9.55;75.05;100330.20;107858;1252;108494;-60
2023/04/26 11:03:57;;;;;;;3.20;1.00;;;;;;;9.50;74.83;100342.17;107896;1248;99157;-61
2023/04/26 11:06:49;;;;;;;1.30;1.20;;;;;;;9.55;75.33;100334.05;107658;1253;99083;-63
2023/04/26 11:09:38;;;;;;;2.20;1.00;;;;;;;9.65;75.27;100330.39;107626;1249;113171;-61
2023/04/26 11:12:11;;;;;;;5.20;1.50;;;;;;;9.74;75.16;100338.35;107694;1251;109555;-60
2023/04/26 11:14:45;;;;;;;2.30;0.90;;;;;;;9.84;75.56;100341.20;107543;1251;110177;-62
2023/04/26 11:17:13;;;;;;;4.70;1.00;;;;;;;9.91;75.18;100342.19;107697;1248;99083;-62
2023/04/26 11:19:45;;;;;;;2.40;1.30;;;;;;;10.04;75.34;100334.14;107597;1250;99070;-62
2023/04/26 11:22:13;;;;;;;4.30;1.10;;;;;;;10.22;74.95;100338.98;107586;1250;113604;-61
2023/04/26 11:24:42;;;;;;;3.00;1.00;;;;;;;10.31;73.70;100346.14;107715;1250;109651;-61
2023/04/26 11:27:11;;;;;;;1.30;0.70;;;;;;;10.33;72.84;100346.20;107698;1249;107732;-61
2023/04/26 11:29:40;;;;;;;4.00;1.30;;;;;;;10.38;72.39;100345.73;107625;1250;99193;-63
2023/04/26 11:32:09;;;;;;;1.20;0.70;;;;;;;10.48;72.14;100346.17;107518;1249;99275;-62